createdAt,value
2023-05-07T00:03:57.796Z,6.3
2023-05-07T00:09:35.803Z,6.3
2023-05-07T00:15:12.088Z,6.3
2023-05-07T00:20:51.341Z,6.4
2023-05-07T00:26:27.671Z,6.4
2023-05-07T00:32:19.825Z,6.3
2023-05-07T00:38:12.447Z,6.1
2023-05-07T00:44:04.866Z,6
2023-05-07T00:49:41.714Z,5.9
2023-05-07T00:55:33.260Z,5.8
2023-05-07T01:01:26.783Z,5.8
2023-05-07T01:07:25.046Z,5.7
2023-05-07T01:13:02.429Z,5.8
2023-05-07T01:18:54.637Z,5.7
2023-05-07T01:24:46.704Z,5.7
2023-05-07T01:30:38.579Z,5.6
2023-05-07T01:36:31.009Z,5.5
2023-05-07T01:42:23.136Z,5.4
2023-05-07T01:48:15.530Z,5.4
2023-05-07T01:54:08.559Z,5.3
2023-05-07T01:59:59.326Z,5.3
2023-05-07T02:05:53.523Z,5.1
2023-05-07T02:11:44.413Z,5.1
2023-05-07T02:17:37.159Z,4.9
2023-05-07T02:23:32.018Z,4.9
2023-05-07T02:29:24.483Z,4.8
2023-05-07T02:35:15.946Z,4.8
2023-05-07T02:41:07.923Z,4.6
2023-05-07T02:47:00.162Z,4.6
2023-05-07T02:52:53.714Z,4.4
2023-05-07T02:58:46.559Z,4.4
2023-05-07T03:04:40.654Z,4.3
2023-05-07T03:10:31.945Z,4.3
2023-05-07T03:16:24.173Z,4.2
2023-05-07T03:22:17.524Z,4.2
2023-05-07T03:28:10.974Z,4.3
2023-05-07T03:34:03.307Z,4.3
2023-05-07T03:39:55.601Z,4.4
2023-05-07T03:45:48.654Z,4.5
2023-05-07T03:51:40.928Z,4.6
2023-05-07T03:57:33.705Z,4.8
2023-05-07T04:03:25.852Z,4.9
2023-05-07T04:09:19.401Z,5.1
2023-05-07T04:15:11.584Z,5.3
2023-05-07T04:21:03.856Z,5.6
2023-05-07T04:26:56.036Z,5.8
2023-05-07T04:32:48.815Z,6
2023-05-07T04:38:40.070Z,6.6
2023-05-07T04:44:32.951Z,7.3
2023-05-07T04:50:25.736Z,8.3
2023-05-07T04:56:17.154Z,9.5
2023-05-07T05:02:10.598Z,10.9
2023-05-07T05:08:03.429Z,12.4
2023-05-07T05:13:55.044Z,14.3
2023-05-07T05:19:48.200Z,16.4
2023-05-07T05:25:39.752Z,18.6
2023-05-07T05:31:32.841Z,21.1
2023-05-07T05:37:25.332Z,23.6
2023-05-07T05:43:17.413Z,26.4
2023-05-07T05:48:56.042Z,29.1
2023-05-07T05:54:49.173Z,32.2
2023-05-07T06:00:41.214Z,35.3
2023-05-07T06:06:33.387Z,38.3
2023-05-07T06:12:25.318Z,41.3
2023-05-07T06:18:18.296Z,44.3
2023-05-07T06:24:11.417Z,46.8
2023-05-07T06:30:03.172Z,49.6
2023-05-07T06:35:56.195Z,52.1
2023-05-07T06:41:47.681Z,54.3
2023-05-07T06:47:40.508Z,57.6
2023-05-07T06:53:17.877Z,50.4
2023-05-07T06:59:10.517Z,50.3
2023-05-07T07:05:04.077Z,54.4
2023-05-07T07:10:56.343Z,58.5
2023-05-07T07:16:48.721Z,52.4
2023-05-07T07:22:42.310Z,52.8
2023-05-07T07:28:36.287Z,60.8
2023-05-07T07:34:29.921Z,56.7
2023-05-07T07:40:33.446Z,52.8
2023-05-07T07:46:27.121Z,58.7
2023-05-07T07:52:37.241Z,59.3
2023-05-07T07:58:35.534Z,56.2
2023-05-07T08:04:33.037Z,56.3
2023-05-07T08:10:13.360Z,56.7
2023-05-07T08:16:08.204Z,57.6
2023-05-07T08:22:02.368Z,58
2023-05-07T08:27:57.076Z,58.9
2023-05-07T08:33:52.647Z,59.8
2023-05-07T08:39:47.855Z,60.3
2023-05-07T08:45:43.919Z,61
2023-05-07T08:51:39.164Z,61.4
2023-05-07T08:57:34.640Z,61.8
2023-05-07T09:03:28.505Z,62.4
2023-05-07T09:09:10.906Z,62.6
2023-05-07T09:15:05.446Z,63.1
2023-05-07T09:20:45.776Z,62.9
2023-05-07T09:26:43.895Z,63.8
2023-05-07T09:32:39.493Z,64.4
2023-05-07T09:38:37.784Z,65.1
2023-05-07T09:44:31.721Z,65.6
2023-05-07T09:50:26.261Z,66.2
2023-05-07T09:56:21.873Z,66.2
2023-05-07T10:02:19.055Z,65.9
2023-05-07T10:08:13.152Z,67.1
2023-05-07T10:14:06.931Z,66.4
2023-05-07T10:20:04.459Z,65.9
2023-05-07T10:26:01.182Z,67.3
2023-05-07T10:31:56.553Z,66.3
2023-05-07T10:37:52.198Z,66.5
2023-05-07T10:43:31.401Z,66.8
2023-05-07T10:49:42.353Z,67
2023-05-07T10:55:24.062Z,67.4
2023-05-07T11:01:35.074Z,67.1
2023-05-07T11:07:30.024Z,66.9
2023-05-07T11:13:24.738Z,67
2023-05-07T11:19:22.561Z,66.4
2023-05-07T11:25:19.048Z,66.4
2023-05-07T11:31:13.833Z,66.1
2023-05-07T11:36:53.014Z,66.1
2023-05-07T11:42:51.877Z,66.1
2023-05-07T11:48:47.142Z,65.4
2023-05-07T11:54:43.028Z,65.6
2023-05-07T12:00:36.903Z,65.4
2023-05-07T12:06:32.705Z,65.7
2023-05-07T12:12:14.103Z,65.6
2023-05-07T12:17:54.311Z,65.7
2023-05-07T12:23:32.846Z,65.6
2023-05-07T12:28:57.230Z,65.4
2023-05-07T12:34:50.953Z,64.8
2023-05-07T12:40:44.742Z,64.4
2023-05-07T12:46:25.615Z,64.3
2023-05-07T12:52:04.187Z,63.6
2023-05-07T12:57:42.086Z,60.9
2023-05-07T13:03:22.071Z,64.4
2023-05-07T13:09:00.664Z,68.3
2023-05-07T13:14:41.256Z,61.6
2023-05-07T13:20:37.709Z,59.3
2023-05-07T13:26:26.508Z,55.9
2023-05-07T13:32:38.641Z,56.4
2023-05-07T13:38:32.733Z,58.3
2023-05-07T13:44:26.078Z,59.7
2023-05-07T13:50:18.185Z,60.7
2023-05-07T13:55:55.729Z,61
2023-05-07T14:01:48.109Z,60.1
2023-05-07T14:07:41.321Z,59.3
2023-05-07T14:13:37.000Z,58.5
2023-05-07T14:19:31.821Z,57.5
2023-05-07T14:25:40.976Z,56.9
2023-05-07T14:31:33.544Z,55.7
2023-05-07T14:37:25.161Z,53.7
2023-05-07T14:43:18.116Z,51.3
2023-05-07T14:49:10.585Z,49.3
2023-05-07T14:55:01.843Z,47.6
2023-05-07T15:00:56.445Z,45.8
2023-05-07T15:06:53.138Z,43.8
2023-05-07T15:12:44.336Z,42.2
2023-05-07T15:18:40.429Z,40.9
2023-05-07T15:24:32.154Z,39.5
2023-05-07T15:30:25.333Z,38.1
2023-05-07T15:36:18.139Z,36.9
2023-05-07T15:42:10.192Z,35.9
2023-05-07T15:48:01.472Z,34.9
2023-05-07T15:53:54.309Z,33.8
2023-05-07T15:59:46.604Z,32.9
2023-05-07T16:05:40.731Z,32.2
2023-05-07T16:11:33.736Z,31.3
2023-05-07T16:17:28.677Z,30.8
2023-05-07T16:23:20.298Z,30.1
2023-05-07T16:29:12.382Z,29.2
2023-05-07T16:35:05.867Z,28.1
2023-05-07T16:40:56.661Z,27.1
2023-05-07T16:46:52.058Z,26.2
2023-05-07T16:52:28.522Z,25.4
2023-05-07T16:58:05.441Z,24.6
2023-05-07T17:04:15.231Z,23.9
2023-05-07T17:10:08.738Z,23.3
2023-05-07T17:16:00.334Z,22.7
2023-05-07T17:21:52.860Z,22.1
2023-05-07T17:27:43.987Z,21.6
2023-05-07T17:33:53.177Z,21
2023-05-07T17:39:44.532Z,20.5
2023-05-07T17:45:20.581Z,20.1
2023-05-07T17:51:13.559Z,19.6
2023-05-07T17:57:13.477Z,19.3
2023-05-07T18:03:03.029Z,19
2023-05-07T18:08:54.619Z,18.8
2023-05-07T18:14:31.261Z,18.6
2023-05-07T18:20:26.021Z,18.4
2023-05-07T18:26:16.569Z,18.2
2023-05-07T18:32:11.861Z,18.1
2023-05-07T18:37:48.768Z,17.9
2023-05-07T18:43:40.463Z,17.8
2023-05-07T18:49:33.230Z,17.6
2023-05-07T18:55:09.630Z,17.4
2023-05-07T19:01:00.071Z,17.2
2023-05-07T19:06:52.808Z,17.1
2023-05-07T19:12:56.656Z,16.9
2023-05-07T19:18:51.544Z,16.8
2023-05-07T19:24:43.950Z,16.7
2023-05-07T19:30:56.664Z,16.6
2023-05-07T19:36:49.737Z,16.4
2023-05-07T19:42:27.542Z,16.3
2023-05-07T19:48:20.489Z,16.1
2023-05-07T19:54:14.429Z,15.9
2023-05-07T20:00:09.403Z,15.8
2023-05-07T20:06:03.625Z,15.5
2023-05-07T20:11:41.799Z,15.4
2023-05-07T20:17:21.427Z,15.3
2023-05-07T20:23:15.204Z,15
2023-05-07T20:28:51.147Z,14.9
2023-05-07T20:34:43.567Z,14.8
2023-05-07T20:40:35.683Z,14.7
2023-05-07T20:46:30.190Z,14.6
2023-05-07T20:52:22.752Z,14.6
2023-05-07T20:58:17.381Z,14.5
2023-05-07T21:04:10.270Z,14.4
2023-05-07T21:10:02.095Z,14.2
2023-05-07T21:15:54.228Z,14.1
2023-05-07T21:21:46.410Z,13.9
2023-05-07T21:27:38.096Z,13.9
2023-05-07T21:33:15.336Z,13.8
2023-05-07T21:39:07.276Z,13.7
2023-05-07T21:44:59.602Z,13.6
2023-05-07T21:50:51.611Z,13.6
2023-05-07T21:56:42.599Z,13.6
2023-05-07T22:02:50.862Z,13.4
2023-05-07T22:08:43.260Z,13.4
2023-05-07T22:14:36.498Z,13.4
2023-05-07T22:20:39.851Z,13.3
2023-05-07T22:26:32.800Z,13.3
2023-05-07T22:32:10.526Z,13.1
2023-05-07T22:38:03.981Z,13.1
2023-05-07T22:43:56.087Z,13
2023-05-07T22:49:48.855Z,12.9
2023-05-07T22:55:40.858Z,12.8
2023-05-07T23:01:32.659Z,12.6
2023-05-07T23:07:24.320Z,12.4
2023-05-07T23:13:16.324Z,12.2
2023-05-07T23:19:10.851Z,11.9
2023-05-07T23:25:02.609Z,11.7
2023-05-07T23:30:54.563Z,11.5
2023-05-07T23:36:46.725Z,11.3
2023-05-07T23:42:37.728Z,11.1
2023-05-07T23:48:28.762Z,10.8
2023-05-07T23:54:19.920Z,10.7
